VISIB

Not for real navigation. The accuracy of this data is not assured See disclaimer for more information



ICAO NAME COUNTRY WIND Kt GUST Kt VIS m TEMP/DEW C BARO METAR
OITL Ardabil Iran 4 0 100 -2/-3 30.27 OITL 190630Z 35004KT 0100 R15///// R33/0450N FG VV002 M02/M03 Q1025
LQBK Banja Luka Bosnia and Herzegovina 2 0 100 -9/-11 30.39 LQBK 190630Z 01002KT 0100 R17/0150N FZFG VV001 M09/M11 Q1029 NOSIG
LHKE Kecskemet Hungary 2 0 100 -9/-10 30.39 LHKE 190645Z 15002KT 0100 FZFG VV001 M09/M10 Q1029 NOSIG RMK RED
LHUD Szeged Hungary 2 0 100 -9/-9 30.42 LHUD 190615Z 22002KT 0100 FZFG VV002 M09/M09 Q1030
LIVC Monte Cimone Italy 12 0 100 -3/-5 30.09 LIVC 190555Z 24012KT 0100 FZFG VV/// M03/M05 Q1019 RMK MON INVIS VAL INVIS VIS MIN 0100

Show more